createdAt,value
2023-03-06T00:00:58.247Z,100567.22
2023-03-06T00:03:28.669Z,100562.97
2023-03-06T00:05:59.338Z,100568.16
2023-03-06T00:08:28.879Z,100555.41
2023-03-06T00:10:57.761Z,100558.13
2023-03-06T00:13:26.737Z,100552.28
2023-03-06T00:15:55.325Z,100548.94
2023-03-06T00:18:23.534Z,100553.19
2023-03-06T00:20:51.797Z,100550.56
2023-03-06T00:23:21.621Z,100547.09
2023-03-06T00:25:50.128Z,100540.19
2023-03-06T00:28:18.313Z,100537.56
2023-03-06T00:30:47.610Z,100535.78
2023-03-06T00:33:15.796Z,100533.16
2023-03-06T00:35:44.192Z,100532.28
2023-03-06T00:38:13.495Z,100527.13
2023-03-06T00:40:43.498Z,100517.69
2023-03-06T00:43:12.103Z,100518.66
2023-03-06T00:45:40.519Z,100517.81
2023-03-06T00:48:10.150Z,100516.19
2023-03-06T00:50:38.826Z,100511.13
2023-03-06T00:53:06.986Z,100514.50
2023-03-06T00:55:35.183Z,100517.09
2023-03-06T00:58:05.174Z,100516.19
2023-03-06T01:00:33.644Z,100505.94
2023-03-06T01:03:01.846Z,100503.41
2023-03-06T01:05:36.664Z,100505.16
2023-03-06T01:08:05.398Z,100498.31
2023-03-06T01:10:33.930Z,100498.31
2023-03-06T01:13:02.374Z,100500.81
2023-03-06T01:15:32.203Z,100493.03
2023-03-06T01:18:00.962Z,100498.13
2023-03-06T01:20:29.760Z,100490.38
2023-03-06T01:22:58.238Z,100486.97
2023-03-06T01:25:27.390Z,100486.13
2023-03-06T01:27:55.688Z,100483.56
2023-03-06T01:30:23.938Z,100486.13
2023-03-06T01:32:53.854Z,100480.94
2023-03-06T01:35:22.052Z,100480.88
2023-03-06T01:37:50.281Z,100475.72
2023-03-06T01:40:18.635Z,100462.88
2023-03-06T01:42:50.474Z,100461.22
2023-03-06T01:45:56.330Z,100460.41
2023-03-06T01:48:26.567Z,100456.06
2023-03-06T01:50:55.772Z,100452.66
2023-03-06T01:53:24.209Z,100456.06
2023-03-06T01:55:52.831Z,100456.00
2023-03-06T01:58:21.792Z,100466.25
2023-03-06T02:00:49.987Z,100456.81
2023-03-06T02:03:22.799Z,100442.31
2023-03-06T02:05:52.629Z,100444.13
2023-03-06T02:08:24.489Z,100443.25
2023-03-06T02:11:02.518Z,100444.06
2023-03-06T02:13:31.826Z,100437.16
2023-03-06T02:16:00.831Z,100432.00
2023-03-06T02:18:29.960Z,100435.44
2023-03-06T02:21:03.437Z,100430.25
2023-03-06T02:23:38.557Z,100424.28
2023-03-06T02:26:10.225Z,100422.59
2023-03-06T02:28:40.083Z,100419.16
2023-03-06T02:31:09.569Z,100414.88
2023-03-06T02:33:37.853Z,100420.00
2023-03-06T02:36:08.014Z,100419.16
2023-03-06T02:38:42.044Z,100413.19
2023-03-06T02:41:11.758Z,100405.50
2023-03-06T02:43:42.273Z,100410.63
2023-03-06T02:46:11.189Z,100414.06
2023-03-06T02:48:39.527Z,100405.50
2023-03-06T02:51:07.836Z,100405.50
2023-03-06T02:53:36.053Z,100396.06
2023-03-06T02:56:04.275Z,100391.78
2023-03-06T02:58:34.245Z,100389.19
2023-03-06T03:01:02.511Z,100388.34
2023-03-06T03:03:33.228Z,100383.16
2023-03-06T03:06:01.967Z,100388.28
2023-03-06T03:08:33.713Z,100381.44
2023-03-06T03:11:04.474Z,100383.97
2023-03-06T03:13:42.021Z,100381.38
2023-03-06T03:16:16.520Z,100378.81
2023-03-06T03:18:48.119Z,100371.94
2023-03-06T03:21:18.999Z,100377.94
2023-03-06T03:23:48.874Z,100372.78
2023-03-06T03:26:20.122Z,100377.03
2023-03-06T03:28:56.861Z,100371.88
2023-03-06T03:31:25.209Z,100362.44
2023-03-06T03:33:53.857Z,100364.13
2023-03-06T03:36:24.703Z,100362.44
2023-03-06T03:38:52.939Z,100364.16
2023-03-06T03:41:21.444Z,100369.25
2023-03-06T03:43:49.786Z,100360.69
2023-03-06T03:46:21.580Z,100354.69
2023-03-06T03:48:52.595Z,100359.81
2023-03-06T03:51:21.243Z,100355.53
2023-03-06T03:53:56.809Z,100352.97
2023-03-06T03:56:28.694Z,100362.38
2023-03-06T03:59:05.259Z,100355.59
2023-03-06T04:01:41.865Z,100348.91
2023-03-06T04:04:10.466Z,100343.91
2023-03-06T04:06:39.822Z,100349.09
2023-03-06T04:09:08.580Z,100343.16
2023-03-06T04:11:38.709Z,100349.19
2023-03-06T04:14:08.340Z,100347.44
2023-03-06T04:16:37.079Z,100346.63
2023-03-06T04:19:07.109Z,100345.72
2023-03-06T04:21:37.596Z,100345.75
2023-03-06T04:24:08.172Z,100343.16
2023-03-06T04:26:37.211Z,100343.16
2023-03-06T04:29:06.734Z,100338.94
2023-03-06T04:31:35.043Z,100337.22
2023-03-06T04:34:03.304Z,100330.41
2023-03-06T04:36:35.211Z,100326.97
2023-03-06T04:39:08.216Z,100328.69
2023-03-06T04:41:36.826Z,100323.56
2023-03-06T04:44:05.215Z,100322.66
2023-03-06T04:46:33.409Z,100320.03
2023-03-06T04:49:01.840Z,100308.88
2023-03-06T04:51:30.025Z,100309.81
2023-03-06T04:53:59.880Z,100310.69
2023-03-06T04:56:28.141Z,100310.69
2023-03-06T04:58:56.974Z,100308.88
2023-03-06T05:01:25.460Z,100313.16
2023-03-06T05:03:54.165Z,100311.38
2023-03-06T05:06:22.287Z,100309.63
2023-03-06T05:08:50.877Z,100309.63
2023-03-06T05:11:20.593Z,100305.31
2023-03-06T05:13:49.523Z,100306.13
2023-03-06T05:16:17.771Z,100300.97
2023-03-06T05:18:46.030Z,100300.09
2023-03-06T05:21:14.223Z,100300.94
2023-03-06T05:23:43.981Z,100301.88
2023-03-06T05:26:14.003Z,100304.47
2023-03-06T05:28:43.622Z,100296.03
2023-03-06T05:31:11.840Z,100297.78
2023-03-06T05:33:40.123Z,100292.69
2023-03-06T05:36:09.830Z,100296.16
2023-03-06T05:38:38.012Z,100291.06
2023-03-06T05:41:06.425Z,100295.28
2023-03-06T05:43:34.604Z,100291.00
2023-03-06T05:46:05.778Z,100291.88
2023-03-06T05:48:35.399Z,100286.81
2023-03-06T05:51:04.415Z,100294.53
2023-03-06T05:53:33.860Z,100292.84
2023-03-06T05:56:04.599Z,100293.75
2023-03-06T05:58:33.732Z,100282.63
2023-03-06T06:01:08.690Z,100282.63
2023-03-06T06:03:38.823Z,100292.03
2023-03-06T06:06:08.425Z,100286.84
2023-03-06T06:08:36.694Z,100285.13
2023-03-06T06:11:06.873Z,100285.97
2023-03-06T06:13:35.458Z,100297.09
2023-03-06T06:16:08.195Z,100290.16
2023-03-06T06:18:40.971Z,100289.22
2023-03-06T06:21:10.498Z,100296.03
2023-03-06T06:23:38.784Z,100292.53
2023-03-06T06:26:08.979Z,100301.03
2023-03-06T06:28:37.517Z,100299.31
2023-03-06T06:31:09.917Z,100302.72
2023-03-06T06:33:40.397Z,100301.00
2023-03-06T06:36:16.808Z,100308.63
2023-03-06T06:38:45.337Z,100309.47
2023-03-06T06:44:02.681Z,100317.28
2023-03-06T06:47:19.215Z,100323.44
2023-03-06T06:49:20.640Z,100319.38
2023-03-06T06:51:49.080Z,100312.59
2023-03-06T06:54:18.759Z,100315.22
2023-03-06T06:56:47.093Z,100310.94
2023-03-06T06:59:16.949Z,100310.88
2023-03-06T07:01:45.928Z,100312.53
2023-03-06T07:04:14.690Z,100301.41
2023-03-06T07:06:44.933Z,100303.13
2023-03-06T07:09:14.583Z,100304.88
2023-03-06T07:11:43.184Z,100298.97
2023-03-06T07:14:11.350Z,100302.44
2023-03-06T07:16:39.833Z,100295.59
2023-03-06T07:19:08.546Z,100293.97
2023-03-06T07:21:36.789Z,100293.22
2023-03-06T07:24:07.858Z,100294.97
2023-03-06T07:26:36.136Z,100293.19
2023-03-06T07:29:05.545Z,100292.25
2023-03-06T07:31:34.252Z,100303.28
2023-03-06T07:34:04.796Z,100304.94
2023-03-06T07:36:34.011Z,100302.25
2023-03-06T07:39:02.373Z,100303.84
2023-03-06T07:41:32.081Z,100306.28
2023-03-06T07:44:00.287Z,100283.91
2023-03-06T07:46:29.072Z,100288.06
2023-03-06T07:48:58.335Z,100282.88
2023-03-06T07:51:26.820Z,100286.34
2023-03-06T07:53:54.975Z,100282.19
2023-03-06T07:56:23.178Z,100285.56
2023-03-06T07:58:52.832Z,100282.00
2023-03-06T08:01:23.668Z,100277.66
2023-03-06T08:03:52.289Z,100283.59
2023-03-06T08:06:22.250Z,100272.38
2023-03-06T08:08:51.811Z,100283.44
2023-03-06T08:11:22.738Z,100281.66
2023-03-06T08:13:53.747Z,100276.47
2023-03-06T08:16:22.532Z,100289.25
2023-03-06T08:18:51.149Z,100276.38
2023-03-06T08:21:22.056Z,100279.69
2023-03-06T08:23:50.780Z,100276.13
2023-03-06T08:26:21.128Z,100267.41
2023-03-06T08:28:50.058Z,100268.16
2023-03-06T08:31:26.693Z,100271.47
2023-03-06T08:33:55.804Z,100271.34
2023-03-06T08:36:24.053Z,100274.69
2023-03-06T08:38:52.604Z,100275.38
2023-03-06T08:41:21.003Z,100283.81
2023-03-06T08:43:49.624Z,100280.19
2023-03-06T08:46:19.328Z,100281.75
2023-03-06T08:48:48.985Z,100280.72
2023-03-06T08:51:18.698Z,100277.19
2023-03-06T08:53:47.784Z,100275.34
2023-03-06T08:56:18.036Z,100270.13
2023-03-06T08:58:46.737Z,100275.97
2023-03-06T09:01:16.444Z,100272.38
2023-03-06T09:03:44.731Z,100268.78
2023-03-06T09:06:15.116Z,100270.47
2023-03-06T09:08:44.833Z,100262.81
2023-03-06T09:11:14.091Z,100268.84
2023-03-06T09:13:42.418Z,100270.41
2023-03-06T09:16:11.745Z,100271.94
2023-03-06T09:18:41.036Z,100269.13
2023-03-06T09:21:11.111Z,100269.63
2023-03-06T09:23:41.179Z,100268.47
2023-03-06T09:26:09.820Z,100274.19
2023-03-06T09:28:39.300Z,100272.28
2023-03-06T09:31:09.783Z,100267.25
2023-03-06T09:33:38.974Z,100273.25
2023-03-06T09:36:08.600Z,100273.09
2023-03-06T09:38:36.839Z,100278.03
2023-03-06T09:41:15.956Z,100274.41
2023-03-06T09:43:47.205Z,100271.94
2023-03-06T09:46:21.370Z,100272.03
2023-03-06T09:49:01.619Z,100265.25
2023-03-06T09:51:39.344Z,100266.22
2023-03-06T09:54:14.533Z,100268.00
2023-03-06T09:56:48.927Z,100267.06
2023-03-06T09:59:21.460Z,100265.94
2023-03-06T10:01:55.470Z,100259.94
2023-03-06T10:04:35.724Z,100262.97
2023-03-06T10:07:13.912Z,100253.09
2023-03-06T10:09:48.220Z,100267.34
2023-03-06T10:12:25.560Z,100265.47
2023-03-06T10:15:14.975Z,100266.00
2023-03-06T10:17:44.498Z,100262.03
2023-03-06T10:20:21.042Z,100269.09
2023-03-06T10:23:05.478Z,100265.94
2023-03-06T10:25:39.705Z,100269.75
2023-03-06T10:28:17.877Z,100271.22
2023-03-06T10:30:53.718Z,100272.94
2023-03-06T10:33:34.574Z,100270.19
2023-03-06T10:36:03.137Z,100269.25
2023-03-06T10:38:37.848Z,100262.91
2023-03-06T10:41:09.310Z,100255.59
2023-03-06T10:43:40.855Z,100251.97
2023-03-06T10:46:11.529Z,100259.66
2023-03-06T10:48:42.425Z,100261.31
2023-03-06T10:51:18.903Z,100256.06
2023-03-06T10:53:53.090Z,100257.19
2023-03-06T10:56:29.348Z,100263.34
2023-03-06T10:59:12.377Z,100272.16
2023-03-06T11:01:42.947Z,100257.66
2023-03-06T11:04:24.293Z,100253.41
2023-03-06T11:07:13.653Z,100257.72
2023-03-06T11:09:42.100Z,100262.28
2023-03-06T11:12:23.826Z,100259.78
2023-03-06T11:15:17.831Z,100258.06
2023-03-06T11:17:55.433Z,100258.09
2023-03-06T11:20:26.071Z,100257.31
2023-03-06T11:22:57.941Z,100251.47
2023-03-06T11:25:31.158Z,100245.56
2023-03-06T11:28:04.561Z,100251.50
2023-03-06T11:30:40.933Z,100257.28
2023-03-06T11:33:21.159Z,100256.06
2023-03-06T11:35:58.064Z,100251.44
2023-03-06T11:38:35.564Z,100251.91
2023-03-06T11:41:09.426Z,100253.34
2023-03-06T11:43:49.187Z,100254.28
2023-03-06T11:46:24.657Z,100242.34
2023-03-06T11:48:58.146Z,100251.88
2023-03-06T11:51:31.591Z,100245.09
2023-03-06T11:54:01.703Z,100253.13
2023-03-06T11:56:42.294Z,100247.19
2023-03-06T11:59:25.436Z,100250.63
2023-03-06T12:02:01.539Z,100253.00
2023-03-06T12:04:51.041Z,100246.41
2023-03-06T12:07:27.444Z,100237.34
2023-03-06T12:13:07.740Z,100253.03
2023-03-06T12:15:55.006Z,100242.78
2023-03-06T12:18:40.400Z,100258.38
2023-03-06T12:21:16.655Z,100243.34
2023-03-06T12:24:04.269Z,100232.91
2023-03-06T12:26:46.080Z,100230.03
2023-03-06T12:29:34.708Z,100227.25
2023-03-06T12:32:15.324Z,100223.59
2023-03-06T12:35:05.894Z,100217.47
2023-03-06T12:37:48.447Z,100214.16
2023-03-06T12:40:46.208Z,100202.28
2023-03-06T12:43:51.520Z,100209.47
2023-03-06T12:46:23.093Z,100204.22
2023-03-06T12:49:03.176Z,100196.25
2023-03-06T12:51:35.594Z,100191.78
2023-03-06T12:54:04.448Z,100187.22
2023-03-06T12:56:34.583Z,100186.00
2023-03-06T12:59:03.144Z,100180.63
2023-03-06T13:02:00.610Z,100165.66
2023-03-06T13:04:40.859Z,100166.00
2023-03-06T13:07:30.258Z,100165.31
2023-03-06T13:10:15.100Z,100157.91
2023-03-06T13:12:51.307Z,100161.78
2023-03-06T13:15:39.180Z,100154.25
2023-03-06T13:18:56.613Z,100148.59
2023-03-06T13:21:48.002Z,100143.09
2023-03-06T13:24:21.389Z,100143.31
2023-03-06T13:27:01.334Z,100142.41
2023-03-06T13:30:07.299Z,100144.41
2023-03-06T13:32:37.178Z,100146.31
2023-03-06T13:35:40.622Z,100136.28
2023-03-06T13:38:32.693Z,100131.94
2023-03-06T13:41:51.470Z,100129.72
2023-03-06T13:44:53.153Z,100126.50
2023-03-06T13:48:10.618Z,100123.13
2023-03-06T13:50:36.579Z,100116.75
2023-03-06T13:53:42.532Z,100116.53
2023-03-06T13:56:33.347Z,100114.41
2023-03-06T13:59:27.160Z,100117.69
2023-03-06T14:02:10.121Z,100116.44
2023-03-06T14:04:44.073Z,100113.25
2023-03-06T14:07:23.150Z,100108.25
2023-03-06T14:10:01.286Z,100108.47
2023-03-06T14:12:34.615Z,100119.94
2023-03-06T14:15:14.619Z,100108.19
2023-03-06T14:17:54.421Z,100113.72
2023-03-06T14:20:28.081Z,100108.72
2023-03-06T14:23:16.484Z,100106.38
2023-03-06T14:25:47.269Z,100091.81
2023-03-06T14:28:26.274Z,100092.69
2023-03-06T14:30:55.508Z,100084.88
2023-03-06T14:33:40.458Z,100081.41
2023-03-06T14:36:15.576Z,100084.69
2023-03-06T14:38:47.374Z,100078.75
2023-03-06T14:41:24.361Z,100078.44
2023-03-06T14:43:52.740Z,100064.91
2023-03-06T14:46:23.334Z,100064.44
2023-03-06T14:48:53.286Z,100069.03
2023-03-06T14:51:22.940Z,100064.22
2023-03-06T14:53:52.896Z,100068.88
2023-03-06T14:56:22.928Z,100062.31
2023-03-06T14:58:56.582Z,100055.25
2023-03-06T15:01:34.102Z,100056.19
2023-03-06T15:04:08.633Z,100047.47
2023-03-06T15:06:41.960Z,100045.88
2023-03-06T15:09:17.398Z,100051.06
2023-03-06T15:11:53.553Z,100046.19
2023-03-06T15:14:23.623Z,100038.88
2023-03-06T15:16:51.714Z,100033.94
2023-03-06T15:19:23.363Z,100030.00
2023-03-06T15:21:53.051Z,100028.16
2023-03-06T15:24:34.263Z,100024.41
2023-03-06T15:27:05.320Z,100022.38
2023-03-06T15:29:34.710Z,100021.50
2023-03-06T15:32:17.595Z,100009.41
2023-03-06T15:34:47.673Z,100013.03
2023-03-06T15:37:29.178Z,100004.53
2023-03-06T15:40:09.380Z,100001.19
2023-03-06T15:42:37.905Z,99988.22
2023-03-06T15:45:16.978Z,99994.44
2023-03-06T15:47:45.504Z,99999.66
2023-03-06T15:50:20.724Z,99993.81
2023-03-06T15:52:50.010Z,99993.22
2023-03-06T15:55:20.248Z,99997.81
2023-03-06T15:57:52.332Z,99989.50
2023-03-06T16:00:28.309Z,99983.88
2023-03-06T16:02:57.256Z,99993.53
2023-03-06T16:05:27.956Z,99991.41
2023-03-06T16:07:56.660Z,99985.69
2023-03-06T16:10:26.582Z,99991.75
2023-03-06T16:12:57.339Z,99987.63
2023-03-06T16:15:29.035Z,99982.38
2023-03-06T16:17:57.487Z,99981.66
2023-03-06T16:20:29.842Z,99983.47
2023-03-06T16:22:57.970Z,99977.75
2023-03-06T16:25:28.801Z,99977.81
2023-03-06T16:27:59.561Z,99971.00
2023-03-06T16:30:30.063Z,99970.34
2023-03-06T16:32:58.815Z,99964.59
2023-03-06T16:35:28.551Z,99964.66
2023-03-06T16:37:56.662Z,99963.94
2023-03-06T16:40:26.935Z,99962.34
2023-03-06T16:42:55.309Z,99958.31
2023-03-06T16:45:24.181Z,99962.00
2023-03-06T16:47:52.918Z,99961.50
2023-03-06T16:50:26.486Z,99958.22
2023-03-06T16:52:57.831Z,99960.03
2023-03-06T16:55:28.472Z,99954.88
2023-03-06T16:57:56.585Z,99953.13
2023-03-06T17:00:28.189Z,99952.28
2023-03-06T17:02:57.631Z,99953.16
2023-03-06T17:05:25.630Z,99953.16
2023-03-06T17:07:55.437Z,99960.16
2023-03-06T17:10:26.531Z,99958.47
2023-03-06T17:12:54.996Z,99948.19
2023-03-06T17:15:23.151Z,99947.47
2023-03-06T17:17:53.312Z,99946.78
2023-03-06T17:20:21.801Z,99940.09
2023-03-06T17:22:49.990Z,99944.53
2023-03-06T17:25:19.554Z,99938.59
2023-03-06T17:27:47.792Z,99940.47
2023-03-06T17:30:17.277Z,99946.63
2023-03-06T17:32:45.436Z,99943.28
2023-03-06T17:35:13.486Z,99946.94
2023-03-06T17:37:41.538Z,99945.28
2023-03-06T17:40:11.690Z,99941.97
2023-03-06T17:42:41.176Z,99946.47
2023-03-06T17:45:11.533Z,99950.03
2023-03-06T17:47:39.639Z,99945.78
2023-03-06T17:50:08.168Z,99949.28
2023-03-06T17:52:37.424Z,99945.97
2023-03-06T17:55:06.205Z,99941.69
2023-03-06T17:57:34.387Z,99944.25
2023-03-06T18:00:05.667Z,99941.75
2023-03-06T18:02:40.217Z,99949.59
2023-03-06T18:05:09.662Z,99952.47
2023-03-06T18:07:37.806Z,99940.88
2023-03-06T18:10:06.758Z,99938.53
2023-03-06T18:12:35.515Z,99942.06
2023-03-06T18:15:06.436Z,99940.34
2023-03-06T18:17:34.584Z,99939.47
2023-03-06T18:20:02.606Z,99930.91
2023-03-06T18:22:31.035Z,99932.72
2023-03-06T18:24:59.085Z,99930.25
2023-03-06T18:27:27.361Z,99924.31
2023-03-06T18:29:55.634Z,99935.63
2023-03-06T18:32:25.527Z,99920.25
2023-03-06T18:34:55.129Z,99928.03
2023-03-06T18:37:23.932Z,99926.28
2023-03-06T18:39:52.003Z,99926.31
2023-03-06T18:42:20.068Z,99925.50
2023-03-06T18:44:48.861Z,99930.66
2023-03-06T18:47:16.858Z,99933.25
2023-03-06T18:49:46.372Z,99936.59
2023-03-06T18:52:14.415Z,99940.34
2023-03-06T18:54:42.823Z,99943.09
2023-03-06T18:57:11.504Z,99938.13
2023-03-06T18:59:39.623Z,99931.44
2023-03-06T19:02:08.585Z,99934.13
2023-03-06T19:04:38.140Z,99936.91
2023-03-06T19:07:07.868Z,99933.69
2023-03-06T19:09:36.003Z,99930.25
2023-03-06T19:12:04.336Z,99939.72
2023-03-06T19:14:32.437Z,99927.56
2023-03-06T19:17:00.530Z,99931.75
2023-03-06T19:19:29.415Z,99920.47
2023-03-06T19:21:59.489Z,99923.78
2023-03-06T19:24:29.154Z,99920.34
2023-03-06T19:26:57.124Z,99916.94
2023-03-06T19:29:25.328Z,99917.88
2023-03-06T19:31:53.470Z,99912.81
2023-03-06T19:34:21.666Z,99911.19
2023-03-06T19:36:51.152Z,99919.72
2023-03-06T19:39:19.298Z,99909.44
2023-03-06T19:41:49.056Z,99907.75
2023-03-06T19:44:17.414Z,99919.81
2023-03-06T19:46:45.388Z,99916.28
2023-03-06T19:49:18.005Z,99917.16
2023-03-06T19:51:46.433Z,99913.84
2023-03-06T19:54:15.404Z,99911.31
2023-03-06T19:56:43.414Z,99908.78
2023-03-06T19:59:12.874Z,99913.91
2023-03-06T20:01:41.327Z,99923.34
2023-03-06T20:04:09.805Z,99908.78
2023-03-06T20:06:38.941Z,99904.66
2023-03-06T20:09:09.574Z,99894.56
2023-03-06T20:11:37.830Z,99893.72
2023-03-06T20:14:07.655Z,99891.25
2023-03-06T20:16:37.318Z,99887.22
2023-03-06T20:19:06.764Z,99878.72
2023-03-06T20:21:38.068Z,99872.84
2023-03-06T20:24:08.562Z,99877.31
2023-03-06T20:26:38.128Z,99877.44
2023-03-06T20:29:06.380Z,99872.34
2023-03-06T20:31:36.541Z,99859.75
2023-03-06T20:34:05.663Z,99862.41
2023-03-06T20:36:36.278Z,99855.50
2023-03-06T20:39:06.561Z,99859.66
2023-03-06T20:41:34.657Z,99871.56
2023-03-06T20:44:05.238Z,99864.53
2023-03-06T20:46:33.601Z,99875.53
2023-03-06T20:49:03.193Z,99866.19
2023-03-06T20:51:32.414Z,99863.72
2023-03-06T20:54:02.282Z,99868.22
2023-03-06T20:56:33.169Z,99857.06
2023-03-06T20:59:01.949Z,99856.16
2023-03-06T21:01:32.201Z,99850.91
2023-03-06T21:04:02.500Z,99855.06
2023-03-06T21:06:30.886Z,99853.28
2023-03-06T21:09:00.571Z,99847.25
2023-03-06T21:11:29.340Z,99846.34
2023-03-06T21:13:58.181Z,99850.56
2023-03-06T21:16:27.343Z,99843.63
2023-03-06T21:18:56.858Z,99839.31
2023-03-06T21:21:29.453Z,99832.59
2023-03-06T21:23:58.690Z,99830.09
2023-03-06T21:26:29.174Z,99832.13
2023-03-06T21:28:58.992Z,99829.75
2023-03-06T21:31:28.405Z,99823.03
2023-03-06T21:33:57.505Z,99830.00
2023-03-06T21:36:28.224Z,99823.13
2023-03-06T21:38:56.685Z,99834.16
2023-03-06T21:41:26.326Z,99821.19
2023-03-06T21:43:56.804Z,99816.88
2023-03-06T21:46:25.295Z,99823.75
2023-03-06T21:48:53.557Z,99817.75
2023-03-06T21:51:24.598Z,99813.47
2023-03-06T21:53:55.726Z,99807.53
2023-03-06T21:56:25.676Z,99806.78
2023-03-06T21:58:54.115Z,99796.50
2023-03-06T22:01:28.460Z,99796.50
2023-03-06T22:04:00.130Z,99800.03
2023-03-06T22:06:30.236Z,99788.00
2023-03-06T22:09:01.665Z,99790.47
2023-03-06T22:11:31.583Z,99787.81
2023-03-06T22:13:59.795Z,99780.88
2023-03-06T22:16:28.509Z,99780.84
2023-03-06T22:18:57.066Z,99780.81
2023-03-06T22:21:25.781Z,99769.69
2023-03-06T22:23:55.449Z,99772.25
2023-03-06T22:26:26.200Z,99761.19
2023-03-06T22:28:54.445Z,99763.78
2023-03-06T22:31:24.997Z,99762.13
2023-03-06T22:33:54.082Z,99761.22
2023-03-06T22:36:23.585Z,99762.16
2023-03-06T22:38:55.832Z,99759.53
2023-03-06T22:41:26.842Z,99758.63
2023-03-06T22:43:57.185Z,99757.69
2023-03-06T22:46:26.014Z,99751.63
2023-03-06T22:48:56.328Z,99754.09
2023-03-06T22:51:24.542Z,99745.41
2023-03-06T22:53:52.998Z,99741.88
2023-03-06T22:56:22.748Z,99744.38
2023-03-06T22:58:52.375Z,99739.19
2023-03-06T23:01:22.595Z,99731.38
2023-03-06T23:03:52.339Z,99733.88
2023-03-06T23:06:22.505Z,99726.94
2023-03-06T23:08:52.029Z,99723.41
2023-03-06T23:11:21.254Z,99723.38
2023-03-06T23:14:09.195Z,99716.53
2023-03-06T23:16:56.208Z,99716.53
2023-03-06T23:19:42.494Z,99725.09
2023-03-06T23:22:29.358Z,99726.88
2023-03-06T23:25:16.485Z,99721.78
2023-03-06T23:27:44.741Z,99710.63
2023-03-06T23:30:15.173Z,99706.31
2023-03-06T23:32:45.755Z,99701.94
2023-03-06T23:35:14.523Z,99692.56
2023-03-06T23:37:42.692Z,99683.06
2023-03-06T23:40:11.942Z,99692.56
2023-03-06T23:42:40.414Z,99687.44
2023-03-06T23:45:09.941Z,99685.84
2023-03-06T23:47:39.338Z,99678.44
2023-03-06T23:50:08.105Z,99678.75
2023-03-06T23:52:36.093Z,99665.13
2023-03-06T23:55:04.291Z,99669.53
2023-03-06T23:57:32.395Z,99663.56
